This is the latest recevied weather packets stored in our database for station/object N3TTT-13. If no packets are shown the sender has not sent any weather packets the latest 10 day(s).
| Time | Temp. | Humidity | Pressure | Rain* | Wind** | Luminosity | Snow |
|---|---|---|---|---|---|---|---|
| 1777581473 | 19.44° C | 51% | 1007.6 hPa | 0 mm | - | 482 W/m² | - |
| 1777581167 | 18.89° C | 52% | 1007.6 hPa | 0 mm | - | 350 W/m² | - |
| 1777580862 | 18.33° C | 57% | 1007.7 hPa | 0 mm | - | 98 W/m² | - |
| 1777580557 | 18.89° C | 53% | 1007.5 hPa | 0 mm | - | 64 W/m² | - |
| 1777580253 | 18.89° C | 53% | 1007.4 hPa | 0 mm | - | 106 W/m² | - |
| 1777579951 | 19.44° C | 56% | 1007.4 hPa | 0 mm | - | 151 W/m² | - |
| 1777579646 | 18.89° C | 54% | 1007.5 hPa | 0 mm | - | 125 W/m² | - |
| 1777579344 | 18.89° C | 52% | 1007.5 hPa | 0 mm | - | 117 W/m² | - |
| 1777579040 | 18.89° C | 52% | 1007.3 hPa | 0 mm | - | 153 W/m² | - |
| 1777578734 | 19.44° C | 53% | 1007.3 hPa | 0 mm | - | 102 W/m² | - |
| 1777578429 | 19.44° C | 53% | 1007.4 hPa | 0 mm | - | 122 W/m² | - |
| 1777578125 | 20.56° C | 50% | 1007.3 hPa | 0 mm | - | 112 W/m² | - |
| 1777577821 | 20° C | 57% | 1007.5 hPa | 0 mm | - | 144 W/m² | - |
| 1777577517 | 20.56° C | 57% | 1007.3 hPa | 0 mm | - | 585 W/m² | - |
| 1777577214 | 20° C | 57% | 1007.5 hPa | 0 mm | - | 581 W/m² | - |
| 1777576910 | 19.44° C | 59% | 1007.5 hPa | 0 mm | - | 177 W/m² | - |
| 1777576604 | 18.89° C | 60% | 1007.4 hPa | 0 mm | - | 161 W/m² | - |
| 1777576300 | 18.33° C | 60% | 1007.4 hPa | 0 mm | - | 98 W/m² | - |
| 1777575997 | 18.33° C | 62% | 1007.3 hPa | 0 mm | - | 147 W/m² | - |
| 1777575693 | 19.44° C | 59% | 1007.5 hPa | 0 mm | - | 561 W/m² | - |
| 1777575388 | 18.89° C | 59% | 1007.5 hPa | 0 mm | - | 598 W/m² | - |
| 1777575085 | 18.33° C | 62% | 1007.7 hPa | 0 mm | - | 658 W/m² | - |
| 1777574781 | 18.33° C | 63% | 1007.5 hPa | 0 mm | - | 167 W/m² | - |
| 1777574479 | 19.44° C | 61% | 1007.2 hPa | 0 mm | - | 182 W/m² | - |
| 1777574175 | 20° C | 60% | 1007.3 hPa | 0 mm | - | 550 W/m² | - |
* Rain latest hour (hover to see other rain measurements)
** Current wind speed in m/s (hover to see current wind gust speed)